Time;durP1;ratioP1;P1;durP2;ratioP2;P2;SDS_P1;SDS_P2;PMS_P1;PMS_P2;Temp;Humidity;BMP_temperature;BMP_pressure;BME280_temperature;BME280_humidity;BME280_pressure;Samples;Min_cycle;Max_cycle;Signal;HPM_P1;HPM_P2
2021/11/22 00:01:06;;;;;;;5.43;0.70;;;;;;;;;;5017036;28;20178;-71
2021/11/22 00:03:32;;;;;;;6.03;1.30;;;;;;;;;;5021992;28;20197;-72
2021/11/22 00:05:57;;;;;;;5.50;1.07;;;;;;;;;;5022058;28;20202;-72
2021/11/22 00:08:23;;;;;;;6.37;1.33;;;;;;;;;;5023087;28;20294;-74
2021/11/22 00:10:48;;;;;;;6.13;1.43;;;;;;;;;;5051808;28;20282;-73
2021/11/22 00:13:14;;;;;;;3.87;0.90;;;;;;;;;;5027180;28;20229;-72
2021/11/22 00:15:39;;;;;;;7.33;0.80;;;;;;;;;;5027706;28;20179;-72
2021/11/22 00:18:04;;;;;;;4.37;1.00;;;;;;;;;;5026756;28;20631;-73
2021/11/22 00:20:30;;;;;;;7.37;1.77;;;;;;;;;;5027581;28;20174;-73
2021/11/22 00:22:55;;;;;;;3.20;0.90;;;;;;;;;;5029212;28;20632;-72
2021/11/22 00:25:21;;;;;;;2.63;0.90;;;;;;;;;;5028703;28;20182;-72
2021/11/22 00:27:46;;;;;;;6.20;1.17;;;;;;;;;;5035556;28;20189;-74
2021/11/22 00:30:13;;;;;;;6.10;1.70;;;;;;;;;;5033914;28;20546;-74
2021/11/22 00:32:39;;;;;;;4.93;1.10;;;;;;;;;;5031480;28;20204;-72
2021/11/22 00:35:06;;;;;;;16.17;1.47;;;;;;;;;;5021875;28;20175;-72
2021/11/22 00:37:33;;;;;;;4.40;1.27;;;;;;;;;;5021570;28;20567;-72
2021/11/22 00:40:01;;;;;;;1.60;0.83;;;;;;;;;;5026304;28;20210;-71
2021/11/22 00:42:27;;;;;;;3.30;0.80;;;;;;;;;;5036057;28;20202;-71
2021/11/22 00:44:52;;;;;;;3.33;1.13;;;;;;;;;;5027015;28;20181;-72
2021/11/22 00:47:18;;;;;;;3.90;0.90;;;;;;;;;;5024550;28;20206;-72
2021/11/22 00:49:43;;;;;;;2.87;0.73;;;;;;;;;;5026261;28;20443;-72
2021/11/22 00:52:08;;;;;;;3.33;1.37;;;;;;;;;;5026513;28;20174;-72
2021/11/22 00:54:34;;;;;;;3.97;0.90;;;;;;;;;;5028065;28;20205;-73
2021/11/22 00:56:59;;;;;;;2.83;1.27;;;;;;;;;;5027355;28;20912;-73
2021/11/22 00:59:24;;;;;;;2.70;0.70;;;;;;;;;;5038418;28;20256;-72
2021/11/22 01:01:50;;;;;;;2.67;0.70;;;;;;;;;;5027740;28;20475;-73
2021/11/22 01:04:18;;;;;;;5.10;1.53;;;;;;;;;;5036181;28;20198;-74
2021/11/22 01:06:44;;;;;;;5.70;1.13;;;;;;;;;;5027395;28;20179;-74
2021/11/22 01:09:09;;;;;;;4.53;0.97;;;;;;;;;;5035569;28;20705;-73
2021/11/22 01:11:35;;;;;;;4.63;1.20;;;;;;;;;;5037822;28;20177;-72
2021/11/22 01:14:00;;;;;;;3.33;1.57;;;;;;;;;;5029515;28;20246;-72
2021/11/22 01:16:28;;;;;;;2.50;0.80;;;;;;;;;;5036045;28;20182;-73
2021/11/22 01:18:53;;;;;;;5.13;1.47;;;;;;;;;;5026024;28;20210;-75
2021/11/22 01:21:18;;;;;;;3.13;1.20;;;;;;;;;;5038438;28;20195;-72
2021/11/22 01:23:43;;;;;;;2.60;1.00;;;;;;;;;;5031667;28;20324;-73
2021/11/22 01:26:09;;;;;;;3.33;1.63;;;;;;;;;;5030505;28;20170;-72
2021/11/22 01:28:34;;;;;;;5.90;1.40;;;;;;;;;;5025403;28;20178;-73
2021/11/22 01:30:59;;;;;;;2.60;0.80;;;;;;;;;;5031245;28;20560;-72
2021/11/22 01:33:25;;;;;;;4.63;1.10;;;;;;;;;;5034392;28;20344;-72
2021/11/22 01:35:50;;;;;;;4.27;1.37;;;;;;;;;;5025887;28;20186;-75
2021/11/22 01:38:16;;;;;;;2.53;1.03;;;;;;;;;;5028791;28;20210;-74
2021/11/22 01:40:42;;;;;;;6.87;1.10;;;;;;;;;;5039980;28;20308;-71
2021/11/22 01:43:07;;;;;;;4.67;1.00;;;;;;;;;;5030182;28;20252;-73
2021/11/22 01:45:34;;;;;;;5.23;1.30;;;;;;;;;;5036069;28;20174;-74
2021/11/22 01:47:59;;;;;;;4.87;0.97;;;;;;;;;;5027071;28;20609;-72
2021/11/22 01:50:25;;;;;;;3.17;0.80;;;;;;;;;;5031301;28;20193;-72
2021/11/22 01:52:51;;;;;;;3.00;1.00;;;;;;;;;;5036355;28;20209;-71
2021/11/22 01:55:18;;;;;;;2.67;0.80;;;;;;;;;;5032132;28;20560;-72
2021/11/22 01:57:43;;;;;;;5.53;1.80;;;;;;;;;;5031639;28;20186;-72
2021/11/22 02:00:10;;;;;;;2.97;0.80;;;;;;;;;;5027522;28;20644;-73
2021/11/22 02:02:35;;;;;;;3.70;1.30;;;;;;;;;;5039339;28;20675;-73
2021/11/22 02:05:01;;;;;;;6.80;1.03;;;;;;;;;;5029008;28;20188;-73
2021/11/22 02:07:26;;;;;;;2.93;0.87;;;;;;;;;;5033673;28;20185;-73
2021/11/22 02:09:51;;;;;;;1.60;0.97;;;;;;;;;;5027637;28;20260;-73
2021/11/22 02:12:17;;;;;;;1.20;0.60;;;;;;;;;;5034533;28;20178;-72
2021/11/22 02:14:42;;;;;;;3.87;1.07;;;;;;;;;;5035812;28;20231;-73
2021/11/22 02:17:08;;;;;;;3.53;1.07;;;;;;;;;;5029973;28;20606;-72
2021/11/22 02:19:37;;;;;;;5.50;1.17;;;;;;;;;;5031137;28;20281;-72
2021/11/22 02:22:03;;;;;;;5.63;1.20;;;;;;;;;;5032790;28;20189;-72
2021/11/22 02:24:28;;;;;;;3.07;1.03;;;;;;;;;;5025285;28;20194;-73
2021/11/22 02:26:54;;;;;;;3.97;1.30;;;;;;;;;;5032001;28;20178;-73
2021/11/22 02:29:19;;;;;;;2.87;0.80;;;;;;;;;;5033513;28;20178;-73
2021/11/22 02:31:45;;;;;;;4.20;1.10;;;;;;;;;;5031002;28;20220;-73
2021/11/22 02:34:12;;;;;;;3.57;1.20;;;;;;;;;;5032275;28;20199;-74
2021/11/22 02:36:37;;;;;;;2.87;0.93;;;;;;;;;;5033457;28;20174;-74
2021/11/22 02:39:03;;;;;;;3.23;0.97;;;;;;;;;;5034657;28;20209;-72
2021/11/22 02:41:28;;;;;;;7.67;1.23;;;;;;;;;;5026472;28;20190;-73
2021/11/22 02:43:55;;;;;;;2.50;1.17;;;;;;;;;;5032436;28;20241;-73
2021/11/22 02:46:21;;;;;;;1.97;1.13;;;;;;;;;;5031929;28;20554;-73
2021/11/22 02:48:46;;;;;;;5.13;1.13;;;;;;;;;;5028707;28;20182;-74
2021/11/22 02:51:11;;;;;;;2.97;1.10;;;;;;;;;;5034100;28;20709;-73
2021/11/22 02:53:38;;;;;;;3.20;1.20;;;;;;;;;;5034026;28;20802;-73
2021/11/22 02:56:06;;;;;;;4.13;1.30;;;;;;;;;;5031280;28;20178;-73
2021/11/22 02:58:32;;;;;;;4.27;1.10;;;;;;;;;;5044541;28;20513;-72
2021/11/22 03:00:57;;;;;;;5.47;1.20;;;;;;;;;;5038371;28;20181;-73
2021/11/22 03:03:29;;;;;;;2.80;1.20;;;;;;;;;;5026534;28;20281;-72
2021/11/22 03:06:01;;;;;;;1.87;1.00;;;;;;;;;;5027353;28;20181;-73
2021/11/22 03:08:27;;;;;;;5.17;1.50;;;;;;;;;;5030840;28;20186;-73
2021/11/22 03:10:52;;;;;;;4.07;1.10;;;;;;;;;;5034855;28;20676;-72
2021/11/22 03:13:17;;;;;;;4.60;1.57;;;;;;;;;;5032467;28;20210;-73
2021/11/22 03:15:42;;;;;;;2.67;1.17;;;;;;;;;;5036612;28;20185;-71
2021/11/22 03:18:07;;;;;;;4.63;0.80;;;;;;;;;;5032973;28;20205;-72
2021/11/22 03:20:33;;;;;;;3.67;1.10;;;;;;;;;;5034359;28;20189;-71
2021/11/22 03:22:58;;;;;;;4.70;1.43;;;;;;;;;;5031893;28;20212;-72
2021/11/22 03:25:23;;;;;;;3.60;1.53;;;;;;;;;;5034270;28;20279;-72
2021/11/22 03:27:50;;;;;;;8.07;1.47;;;;;;;;;;5036288;28;20202;-72
2021/11/22 03:30:16;;;;;;;12.93;4.10;;;;;;;;;;5033913;28;20179;-72
2021/11/22 03:32:41;;;;;;;4.33;1.17;;;;;;;;;;5036624;28;20198;-72
2021/11/22 03:35:07;;;;;;;2.70;0.80;;;;;;;;;;5035636;28;20193;-71
2021/11/22 03:37:33;;;;;;;5.73;1.50;;;;;;;;;;5036607;28;20830;-72
2021/11/22 03:39:59;;;;;;;5.03;0.93;;;;;;;;;;5032168;28;20293;-72
2021/11/22 03:42:25;;;;;;;3.17;0.83;;;;;;;;;;5039677;28;20293;-73
2021/11/22 03:44:51;;;;;;;5.23;1.00;;;;;;;;;;5038487;28;20214;-72
2021/11/22 03:47:16;;;;;;;5.23;1.37;;;;;;;;;;5037209;28;20210;-72
2021/11/22 03:49:41;;;;;;;1.97;0.87;;;;;;;;;;5031334;28;20649;-73
2021/11/22 03:52:07;;;;;;;3.40;0.90;;;;;;;;;;5036143;28;20181;-72
2021/11/22 03:54:32;;;;;;;2.23;0.90;;;;;;;;;;5030577;28;20273;-72
2021/11/22 03:56:57;;;;;;;2.97;0.97;;;;;;;;;;5031453;28;20217;-73
2021/11/22 03:59:22;;;;;;;5.23;0.80;;;;;;;;;;5037168;28;20329;-71
2021/11/22 04:01:47;;;;;;;6.33;0.97;;;;;;;;;;5038445;28;20174;-72
2021/11/22 04:04:13;;;;;;;6.37;1.07;;;;;;;;;;5033007;28;20222;-72
2021/11/22 04:06:38;;;;;;;4.70;0.93;;;;;;;;;;5035934;28;20186;-72
2021/11/22 04:09:04;;;;;;;4.30;0.90;;;;;;;;;;5041406;28;20257;-72
2021/11/22 04:11:29;;;;;;;3.33;0.87;;;;;;;;;;5039743;28;20182;-72
2021/11/22 04:13:54;;;;;;;6.17;1.30;;;;;;;;;;5035185;28;20682;-72
2021/11/22 04:16:19;;;;;;;8.00;1.10;;;;;;;;;;5040605;28;20186;-72
2021/11/22 04:18:45;;;;;;;1.27;0.90;;;;;;;;;;5032662;28;20221;-72
2021/11/22 04:21:11;;;;;;;4.83;1.00;;;;;;;;;;5039381;28;20181;-71
2021/11/22 04:23:37;;;;;;;4.97;2.47;;;;;;;;;;5035931;28;20224;-72
2021/11/22 04:26:02;;;;;;;3.23;0.97;;;;;;;;;;5041046;28;20173;-73
2021/11/22 04:28:27;;;;;;;4.40;1.10;;;;;;;;;;5034208;28;20904;-71
2021/11/22 04:30:52;;;;;;;4.50;1.10;;;;;;;;;;5030289;28;20426;-72
2021/11/22 04:33:18;;;;;;;3.97;1.30;;;;;;;;;;5030208;28;20694;-71
2021/11/22 04:35:43;;;;;;;4.70;1.77;;;;;;;;;;5038145;28;20181;-72
2021/11/22 04:38:09;;;;;;;6.70;1.60;;;;;;;;;;5034658;28;20738;-71
2021/11/22 04:40:34;;;;;;;4.47;2.27;;;;;;;;;;5032851;28;20182;-73
2021/11/22 04:42:59;;;;;;;8.33;2.93;;;;;;;;;;5030139;28;20761;-72
2021/11/22 04:45:29;;;;;;;4.83;2.07;;;;;;;;;;5030569;28;20214;-72
2021/11/22 04:47:55;;;;;;;7.97;1.50;;;;;;;;;;5028900;28;20174;-73
2021/11/22 04:50:20;;;;;;;4.03;1.53;;;;;;;;;;5027816;28;20170;-72
2021/11/22 04:52:48;;;;;;;6.40;1.80;;;;;;;;;;5032561;28;20193;-72
2021/11/22 04:55:14;;;;;;;14.23;3.03;;;;;;;;;;5032120;28;20616;-72
2021/11/22 04:57:39;;;;;;;6.57;1.30;;;;;;;;;;5029176;28;20208;-71
2021/11/22 05:00:05;;;;;;;6.33;1.30;;;;;;;;;;5030974;28;20671;-72
2021/11/22 05:02:31;;;;;;;3.10;1.33;;;;;;;;;;5032068;28;20247;-72
2021/11/22 05:04:56;;;;;;;8.80;2.63;;;;;;;;;;5031463;28;20166;-72
2021/11/22 05:07:21;;;;;;;10.47;1.67;;;;;;;;;;5032901;28;20182;-73
2021/11/22 05:09:46;;;;;;;3.27;0.90;;;;;;;;;;5030478;28;20170;-71
2021/11/22 05:12:11;;;;;;;1.60;0.87;;;;;;;;;;5032149;28;20608;-73
2021/11/22 05:14:37;;;;;;;6.63;1.10;;;;;;;;;;5035649;28;20185;-73
2021/11/22 05:17:02;;;;;;;3.03;1.00;;;;;;;;;;5029583;28;20603;-72
2021/11/22 05:19:30;;;;;;;3.57;0.73;;;;;;;;;;5031515;28;20288;-72
2021/11/22 05:21:57;;;;;;;3.73;1.13;;;;;;;;;;5033556;28;20174;-72
2021/11/22 05:24:22;;;;;;;2.73;0.83;;;;;;;;;;5042330;28;20199;-71
2021/11/22 05:26:47;;;;;;;5.63;1.67;;;;;;;;;;5045430;28;20171;-72
2021/11/22 05:29:12;;;;;;;10.37;0.97;;;;;;;;;;5033987;28;21109;-72
2021/11/22 05:31:37;;;;;;;1.33;0.77;;;;;;;;;;5030647;28;20189;-72
2021/11/22 05:34:03;;;;;;;6.63;1.23;;;;;;;;;;5031467;28;20202;-73
2021/11/22 05:36:28;;;;;;;3.13;1.67;;;;;;;;;;5028287;28;20603;-72
2021/11/22 05:38:53;;;;;;;0.90;0.80;;;;;;;;;;5029739;28;20208;-72
2021/11/22 05:41:19;;;;;;;6.03;0.90;;;;;;;;;;5032962;28;20599;-71
2021/11/22 05:43:44;;;;;;;3.13;0.70;;;;;;;;;;5030576;28;20210;-72
2021/11/22 05:46:10;;;;;;;14.83;1.93;;;;;;;;;;5036743;28;20178;-71
2021/11/22 05:48:36;;;;;;;2.33;1.33;;;;;;;;;;5031714;28;20209;-72
2021/11/22 05:51:02;;;;;;;4.17;1.07;;;;;;;;;;5034112;28;20182;-72
2021/11/22 05:53:33;;;;;;;4.70;0.93;;;;;;;;;;5026565;28;20289;-71
2021/11/22 05:55:59;;;;;;;4.60;1.37;;;;;;;;;;5028266;28;20655;-73
2021/11/22 05:58:24;;;;;;;3.90;0.80;;;;;;;;;;5027320;28;20213;-73
2021/11/22 06:00:49;;;;;;;3.70;1.33;;;;;;;;;;5020612;28;20232;-72
2021/11/22 06:03:15;;;;;;;4.47;0.77;;;;;;;;;;5028755;28;20190;-72
2021/11/22 06:05:40;;;;;;;2.43;0.80;;;;;;;;;;5031594;28;20255;-72
2021/11/22 06:08:06;;;;;;;3.93;0.97;;;;;;;;;;5033044;28;20202;-72
2021/11/22 06:10:31;;;;;;;3.30;1.37;;;;;;;;;;5036027;28;20174;-72
2021/11/22 06:12:56;;;;;;;1.93;0.90;;;;;;;;;;5041347;28;20201;-72
2021/11/22 06:15:22;;;;;;;2.23;1.07;;;;;;;;;;5027826;28;22167;-73
2021/11/22 06:17:47;;;;;;;3.53;0.93;;;;;;;;;;5025002;28;20209;-71
2021/11/22 06:20:12;;;;;;;2.83;1.00;;;;;;;;;;5018665;28;20206;-72
2021/11/22 06:22:38;;;;;;;3.13;1.10;;;;;;;;;;5022418;28;20422;-72
2021/11/22 06:25:04;;;;;;;3.63;0.80;;;;;;;;;;5022279;28;20223;-72
2021/11/22 06:27:29;;;;;;;1.10;1.00;;;;;;;;;;5022953;28;20261;-72
2021/11/22 06:29:54;;;;;;;3.60;1.10;;;;;;;;;;5021820;28;20186;-72
2021/11/22 06:32:19;;;;;;;2.50;1.27;;;;;;;;;;5022615;28;20200;-72
2021/11/22 06:34:45;;;;;;;6.20;1.27;;;;;;;;;;5020681;28;20203;-71
2021/11/22 06:37:10;;;;;;;3.03;1.20;;;;;;;;;;5018445;28;20206;-72
2021/11/22 06:39:36;;;;;;;1.13;0.97;;;;;;;;;;5024344;28;20206;-72
2021/11/22 06:42:02;;;;;;;2.57;0.80;;;;;;;;;;5024299;28;20190;-72
2021/11/22 06:44:27;;;;;;;4.30;0.80;;;;;;;;;;5024845;28;20663;-71
2021/11/22 06:46:52;;;;;;;1.50;0.80;;;;;;;;;;5028477;28;20171;-71
2021/11/22 06:49:19;;;;;;;4.53;1.23;;;;;;;;;;5030823;28;20273;-72
2021/11/22 06:51:44;;;;;;;3.13;0.70;;;;;;;;;;5025257;28;20597;-72
2021/11/22 06:54:09;;;;;;;1.80;0.80;;;;;;;;;;5025333;28;20232;-71
2021/11/22 06:56:34;;;;;;;5.10;1.43;;;;;;;;;;5024856;28;20182;-72
2021/11/22 06:59:00;;;;;;;6.57;1.40;;;;;;;;;;5023830;28;20198;-71
2021/11/22 07:01:25;;;;;;;2.97;1.10;;;;;;;;;;5030856;28;20190;-72
2021/11/22 07:03:50;;;;;;;4.30;1.20;;;;;;;;;;5019029;28;21724;-71
2021/11/22 07:06:15;;;;;;;5.33;1.23;;;;;;;;;;5025583;28;20280;-71
2021/11/22 07:08:40;;;;;;;2.83;1.70;;;;;;;;;;5032332;28;20232;-71
2021/11/22 07:11:05;;;;;;;3.63;0.93;;;;;;;;;;5028114;28;20265;-72
2021/11/22 07:13:33;;;;;;;4.90;1.00;;;;;;;;;;5023653;28;20755;-71
2021/11/22 07:15:58;;;;;;;2.83;1.37;;;;;;;;;;5018337;28;20187;-72
2021/11/22 07:18:23;;;;;;;10.40;1.50;;;;;;;;;;5015108;28;20235;-72
2021/11/22 07:20:48;;;;;;;4.13;1.90;;;;;;;;;;5013667;28;20190;-71
2021/11/22 07:23:14;;;;;;;2.90;0.83;;;;;;;;;;5007559;28;20763;-72
2021/11/22 07:25:39;;;;;;;3.90;1.10;;;;;;;;;;5012037;28;20241;-71
2021/11/22 07:28:05;;;;;;;4.40;1.40;;;;;;;;;;5014962;28;20292;-73
2021/11/22 07:30:30;;;;;;;7.97;1.20;;;;;;;;;;5015767;28;20182;-72
2021/11/22 07:32:55;;;;;;;3.30;0.97;;;;;;;;;;5012796;28;20252;-72
2021/11/22 07:35:24;;;;;;;2.23;0.97;;;;;;;;;;5016858;28;20182;-71
2021/11/22 07:37:50;;;;;;;6.57;1.30;;;;;;;;;;5018029;28;20175;-72
2021/11/22 07:40:16;;;;;;;4.37;1.40;;;;;;;;;;5018405;28;20855;-72
2021/11/22 07:42:41;;;;;;;4.17;0.80;;;;;;;;;;5019447;28;20315;-71
2021/11/22 07:45:06;;;;;;;6.60;1.50;;;;;;;;;;5018598;28;20200;-72
2021/11/22 07:47:31;;;;;;;5.23;1.13;;;;;;;;;;5017883;28;20178;-72
2021/11/22 07:49:57;;;;;;;2.63;1.33;;;;;;;;;;5017127;28;20674;-71
2021/11/22 07:52:23;;;;;;;2.43;1.20;;;;;;;;;;5020569;28;22406;-72
2021/11/22 07:54:48;;;;;;;4.00;1.30;;;;;;;;;;5019569;28;20190;-71
2021/11/22 07:57:13;;;;;;;3.70;1.20;;;;;;;;;;5020230;28;20237;-71
2021/11/22 07:59:38;;;;;;;3.37;1.53;;;;;;;;;;5020813;28;20348;-72
2021/11/22 08:02:04;;;;;;;5.33;1.97;;;;;;;;;;5021512;28;20186;-73
2021/11/22 08:04:29;;;;;;;5.53;1.57;;;;;;;;;;5016865;28;20279;-71
2021/11/22 08:06:59;;;;;;;5.10;1.60;;;;;;;;;;5016008;28;20187;-73
2021/11/22 08:09:28;;;;;;;4.37;2.27;;;;;;;;;;5018740;28;20252;-72
2021/11/22 08:12:14;;;;;;;6.20;1.60;;;;;;;;;;5017981;28;20244;-71
2021/11/22 08:14:40;;;;;;;3.73;1.67;;;;;;;;;;5017459;28;20186;-71
2021/11/22 08:17:05;;;;;;;4.67;1.63;;;;;;;;;;5019238;28;20244;-70
2021/11/22 08:19:30;;;;;;;2.53;1.60;;;;;;;;;;5018355;28;20202;-71
2021/11/22 08:21:57;;;;;;;2.90;1.40;;;;;;;;;;5015964;28;20221;-71
2021/11/22 08:24:26;;;;;;;4.27;1.70;;;;;;;;;;5014258;28;20330;-71
2021/11/22 08:26:51;;;;;;;3.03;1.40;;;;;;;;;;5030537;28;20174;-71
2021/11/22 08:29:16;;;;;;;7.90;1.57;;;;;;;;;;5012945;28;20572;-71
2021/11/22 08:31:42;;;;;;;3.70;1.57;;;;;;;;;;5017450;28;20194;-70
2021/11/22 08:34:07;;;;;;;3.40;1.83;;;;;;;;;;5016776;28;20202;-71
2021/11/22 08:36:32;;;;;;;3.17;1.30;;;;;;;;;;5016357;28;20681;-71
2021/11/22 08:38:57;;;;;;;2.93;1.20;;;;;;;;;;5017480;28;20209;-71
2021/11/22 08:41:22;;;;;;;2.63;1.03;;;;;;;;;;5018367;28;20189;-70
2021/11/22 08:43:47;;;;;;;9.90;2.10;;;;;;;;;;5016229;28;20224;-72
2021/11/22 08:46:13;;;;;;;5.80;1.20;;;;;;;;;;5022433;28;20194;-72
2021/11/22 08:48:38;;;;;;;4.37;1.47;;;;;;;;;;5034185;28;20216;-71
2021/11/22 08:51:04;;;;;;;3.37;1.47;;;;;;;;;;5028438;28;20269;-72
2021/11/22 08:53:30;;;;;;;2.67;1.20;;;;;;;;;;5030742;28;20233;-71
2021/11/22 08:55:55;;;;;;;5.77;1.17;;;;;;;;;;5016181;28;20185;-72
2021/11/22 08:58:20;;;;;;;7.20;2.27;;;;;;;;;;5016819;28;20206;-71
2021/11/22 09:00:46;;;;;;;4.50;1.40;;;;;;;;;;5019760;28;20248;-71
2021/11/22 09:03:11;;;;;;;3.63;1.50;;;;;;;;;;5018362;28;20205;-72
2021/11/22 09:05:37;;;;;;;3.43;1.10;;;;;;;;;;5015785;28;20173;-71
2021/11/22 09:08:02;;;;;;;4.20;1.30;;;;;;;;;;5014956;28;21249;-72
2021/11/22 09:10:28;;;;;;;2.63;1.37;;;;;;;;;;5016478;28;20300;-72
2021/11/22 09:12:53;;;;;;;4.07;1.30;;;;;;;;;;5017177;28;20210;-73
2021/11/22 09:15:19;;;;;;;1.53;1.00;;;;;;;;;;5017892;28;20578;-73
2021/11/22 09:17:45;;;;;;;2.50;1.23;;;;;;;;;;5020031;28;20706;-72
2021/11/22 09:20:10;;;;;;;2.33;1.20;;;;;;;;;;5017822;28;20210;-73
2021/11/22 09:22:36;;;;;;;7.43;1.37;;;;;;;;;;5031606;28;20201;-72
2021/11/22 09:25:04;;;;;;;1.80;0.90;;;;;;;;;;5017381;28;20170;-73
2021/11/22 09:27:29;;;;;;;3.73;0.90;;;;;;;;;;5017614;28;21818;-73
2021/11/22 09:29:54;;;;;;;3.33;0.93;;;;;;;;;;5016232;28;21295;-71
2021/11/22 09:32:20;;;;;;;4.40;0.93;;;;;;;;;;5015105;28;20194;-71
2021/11/22 09:34:45;;;;;;;1.43;0.60;;;;;;;;;;5012581;28;20174;-72
2021/11/22 09:37:10;;;;;;;3.50;1.00;;;;;;;;;;5017473;28;20609;-75
2021/11/22 09:39:35;;;;;;;3.72;0.70;;;;;;;;;;5010857;28;20208;-74
2021/11/22 09:42:00;;;;;;;3.63;0.90;;;;;;;;;;5013889;28;20226;-73
2021/11/22 09:44:26;;;;;;;5.45;1.33;;;;;;;;;;5017037;28;20206;-73
2021/11/22 09:46:52;;;;;;;4.63;1.00;;;;;;;;;;5017773;28;20178;-74
2021/11/22 09:49:17;;;;;;;4.65;0.80;;;;;;;;;;5016199;28;20206;-71
2021/11/22 09:51:43;;;;;;;3.75;0.73;;;;;;;;;;5016607;28;20190;-73
2021/11/22 09:54:08;;;;;;;2.47;0.80;;;;;;;;;;5014663;28;20684;-74
2021/11/22 09:56:34;;;;;;;2.33;0.80;;;;;;;;;;5015003;28;20239;-74
2021/11/22 09:59:00;;;;;;;5.78;0.85;;;;;;;;;;5026198;28;20308;-74
2021/11/22 10:01:25;;;;;;;3.05;1.10;;;;;;;;;;5014164;28;20758;-74
2021/11/22 10:03:59;;;;;;;3.67;0.90;;;;;;;;;;5017891;28;20694;-74
2021/11/22 10:06:24;;;;;;;5.43;0.70;;;;;;;;;;5016060;28;20189;-74
2021/11/22 10:08:49;;;;;;;2.55;0.93;;;;;;;;;;5015369;28;20408;-74
2021/11/22 10:11:16;;;;;;;2.90;0.90;;;;;;;;;;5013939;28;20194;-73
2021/11/22 10:13:42;;;;;;;4.13;0.80;;;;;;;;;;5011729;28;20918;-74
2021/11/22 10:16:07;;;;;;;2.08;0.70;;;;;;;;;;5023327;28;20357;-72
2021/11/22 10:18:37;;;;;;;3.28;0.90;;;;;;;;;;5014926;28;20206;-72
2021/11/22 10:21:04;;;;;;;3.28;0.80;;;;;;;;;;5017339;28;20186;-72
2021/11/22 10:23:30;;;;;;;2.92;0.77;;;;;;;;;;5015435;28;20205;-73
2021/11/22 10:25:56;;;;;;;2.10;0.70;;;;;;;;;;5017373;28;20189;-72
2021/11/22 10:28:23;;;;;;;5.65;1.45;;;;;;;;;;5019261;28;20954;-73
2021/11/22 10:30:50;;;;;;;1.65;0.80;;;;;;;;;;5017798;28;20194;-73
2021/11/22 10:33:17;;;;;;;5.05;0.90;;;;;;;;;;5018171;28;20238;-72
2021/11/22 10:35:43;;;;;;;2.72;0.93;;;;;;;;;;5016016;28;21093;-72
2021/11/22 10:38:12;;;;;;;2.38;0.60;;;;;;;;;;5018688;28;20314;-72
2021/11/22 10:40:38;;;;;;;2.97;0.80;;;;;;;;;;5014531;28;20174;-71
2021/11/22 10:43:04;;;;;;;2.97;0.82;;;;;;;;;;5014603;28;20214;-72
2021/11/22 10:45:39;;;;;;;2.85;0.55;;;;;;;;;;5018042;28;20575;-72
2021/11/22 10:48:22;;;;;;;4.45;0.60;;;;;;;;;;5013674;28;20192;-71
2021/11/22 10:50:53;;;;;;;5.85;1.40;;;;;;;;;;5015179;28;20186;-71
2021/11/22 10:53:25;;;;;;;2.05;0.80;;;;;;;;;;5013225;28;20197;-71
2021/11/22 10:55:51;;;;;;;2.00;0.80;;;;;;;;;;5012026;28;20293;-72
2021/11/22 10:58:48;;;;;;;2.10;0.75;;;;;;;;;;5014194;28;20231;-74
2021/11/22 11:01:16;;;;;;;3.55;0.80;;;;;;;;;;4992261;28;20694;-70
2021/11/22 11:03:58;;;;;;;4.10;0.95;;;;;;;;;;5013462;28;20200;-71
2021/11/22 11:06:56;;;;;;;3.33;0.90;;;;;;;;;;5017171;28;20206;-73
2021/11/22 11:09:23;;;;;;;4.90;1.63;;;;;;;;;;5007081;28;20198;-75
2021/11/22 11:11:53;;;;;;;2.55;0.80;;;;;;;;;;5021283;28;20188;-75
2021/11/22 11:14:18;;;;;;;2.50;0.73;;;;;;;;;;5020197;28;20582;-74
2021/11/22 11:16:44;;;;;;;4.60;0.90;;;;;;;;;;5022898;28;20174;-73
2021/11/22 11:19:11;;;;;;;1.45;0.60;;;;;;;;;;5017985;28;20711;-73
2021/11/22 11:21:38;;;;;;;4.15;1.38;;;;;;;;;;5024532;28;20174;-73
2021/11/22 11:24:03;;;;;;;2.72;0.98;;;;;;;;;;5021110;28;20702;-74
2021/11/22 11:26:29;;;;;;;3.70;0.95;;;;;;;;;;5021679;28;20182;-71
2021/11/22 11:28:55;;;;;;;1.38;0.80;;;;;;;;;;5022683;28;20186;-73
2021/11/22 11:31:21;;;;;;;2.75;1.23;;;;;;;;;;5021762;28;20196;-74
2021/11/22 11:33:46;;;;;;;1.17;0.80;;;;;;;;;;5019333;28;20198;-73
2021/11/22 11:36:30;;;;;;;6.13;1.55;;;;;;;;;;5018271;28;20180;-73
2021/11/22 11:39:11;;;;;;;4.07;0.73;;;;;;;;;;5022157;28;21741;-73
2021/11/22 11:41:49;;;;;;;1.25;0.80;;;;;;;;;;5023648;28;20655;-72
2021/11/22 11:44:32;;;;;;;1.38;0.63;;;;;;;;;;5022477;28;20197;-73
2021/11/22 11:47:07;;;;;;;3.15;0.60;;;;;;;;;;5022917;28;20285;-72
2021/11/22 11:49:33;;;;;;;3.85;0.73;;;;;;;;;;5021242;28;20235;-72
2021/11/22 11:51:59;;;;;;;2.40;0.93;;;;;;;;;;5020526;28;20556;-73
2021/11/22 11:54:28;;;;;;;1.40;0.40;;;;;;;;;;5019083;28;20428;-73
2021/11/22 11:56:56;;;;;;;2.33;1.65;;;;;;;;;;5017915;28;20980;-73
2021/11/22 11:59:24;;;;;;;1.27;0.40;;;;;;;;;;5016894;28;20572;-74
2021/11/22 12:01:55;;;;;;;3.38;0.77;;;;;;;;;;5021628;28;20203;-74
2021/11/22 12:04:21;;;;;;;3.35;0.60;;;;;;;;;;5020139;28;20212;-74
2021/11/22 12:06:48;;;;;;;1.50;0.40;;;;;;;;;;5021734;28;20602;-72
2021/11/22 12:09:27;;;;;;;1.92;0.60;;;;;;;;;;5020875;28;20236;-73
2021/11/22 12:11:52;;;;;;;1.52;0.50;;;;;;;;;;5018875;28;20185;-73
2021/11/22 12:14:37;;;;;;;2.92;0.93;;;;;;;;;;5024977;28;20216;-72
2021/11/22 12:17:02;;;;;;;2.00;0.40;;;;;;;;;;5019971;28;20190;-73
2021/11/22 12:19:33;;;;;;;1.73;0.50;;;;;;;;;;5018042;28;20220;-73
2021/11/22 12:22:12;;;;;;;2.67;0.68;;;;;;;;;;5019156;28;20839;-73
2021/11/22 12:24:39;;;;;;;2.58;0.60;;;;;;;;;;5021430;28;20641;-73
2021/11/22 12:27:23;;;;;;;4.75;0.60;;;;;;;;;;5015253;28;20213;-73
2021/11/22 12:29:48;;;;;;;1.50;0.52;;;;;;;;;;5017975;28;20212;-73
2021/11/22 12:32:26;;;;;;;6.10;1.55;;;;;;;;;;5016980;28;20264;-73
2021/11/22 12:34:58;;;;;;;5.22;0.60;;;;;;;;;;5018081;28;20186;-73
2021/11/22 12:37:24;;;;;;;1.38;0.47;;;;;;;;;;5018735;28;20228;-73
2021/11/22 12:39:49;;;;;;;2.58;0.63;;;;;;;;;;5017204;28;20202;-73
2021/11/22 12:42:17;;;;;;;1.00;0.60;;;;;;;;;;5023862;28;20189;-74
2021/11/22 12:44:55;;;;;;;0.90;0.60;;;;;;;;;;5023727;28;20182;-74
2021/11/22 12:47:24;;;;;;;0.85;0.52;;;;;;;;;;5017431;28;20182;-73
2021/11/22 12:49:49;;;;;;;1.83;0.45;;;;;;;;;;5018816;28;20182;-74
2021/11/22 12:52:25;;;;;;;1.02;0.50;;;;;;;;;;5019724;28;20232;-73
2021/11/22 12:54:53;;;;;;;1.25;0.40;;;;;;;;;;5029923;28;20184;-74
2021/11/22 12:57:23;;;;;;;3.75;0.73;;;;;;;;;;5021888;28;20614;-73
2021/11/22 13:00:07;;;;;;;1.90;0.70;;;;;;;;;;5017344;28;20340;-73
2021/11/22 13:02:40;;;;;;;2.03;0.85;;;;;;;;;;5019499;28;20257;-72
2021/11/22 13:05:05;;;;;;;2.15;0.60;;;;;;;;;;5021108;28;20265;-72
2021/11/22 13:07:30;;;;;;;4.15;0.60;;;;;;;;;;5015205;28;20185;-73
2021/11/22 13:09:56;;;;;;;2.85;0.63;;;;;;;;;;5019051;28;20186;-73
2021/11/22 13:12:31;;;;;;;4.72;0.70;;;;;;;;;;5015905;28;20428;-74
2021/11/22 13:15:03;;;;;;;2.83;0.50;;;;;;;;;;5018512;28;20199;-74
2021/11/22 13:17:28;;;;;;;3.97;1.52;;;;;;;;;;5018214;28;20197;-73
2021/11/22 13:19:56;;;;;;;0.77;0.40;;;;;;;;;;5014159;28;20213;-73
2021/11/22 13:22:22;;;;;;;1.80;0.40;;;;;;;;;;5020162;28;20633;-73
2021/11/22 13:24:49;;;;;;;2.15;0.50;;;;;;;;;;5018259;28;20178;-73
2021/11/22 13:27:14;;;;;;;5.43;0.50;;;;;;;;;;5017494;28;20186;-74
2021/11/22 13:29:40;;;;;;;2.80;0.57;;;;;;;;;;5016198;28;20292;-73
2021/11/22 13:32:05;;;;;;;1.75;0.50;;;;;;;;;;5013706;28;20640;-73
2021/11/22 13:34:31;;;;;;;1.73;0.80;;;;;;;;;;5020936;28;20186;-74
2021/11/22 13:36:58;;;;;;;1.58;0.50;;;;;;;;;;5020372;28;20652;-73
2021/11/22 13:39:28;;;;;;;1.05;0.40;;;;;;;;;;5015780;28;21878;-73
2021/11/22 13:41:53;;;;;;;3.30;0.60;;;;;;;;;;5008488;28;20212;-73
2021/11/22 13:44:19;;;;;;;0.70;0.40;;;;;;;;;;5020259;28;20269;-74
2021/11/22 13:46:44;;;;;;;3.83;0.40;;;;;;;;;;5011702;28;20253;-74
2021/11/22 13:49:09;;;;;;;2.97;0.40;;;;;;;;;;5014600;28;20268;-73
2021/11/22 13:51:36;;;;;;;1.17;0.40;;;;;;;;;;5017147;28;21070;-73
2021/11/22 13:54:04;;;;;;;3.75;0.45;;;;;;;;;;5015001;28;20201;-73
2021/11/22 13:56:37;;;;;;;1.02;0.40;;;;;;;;;;5015084;28;20252;-73
2021/11/22 13:59:03;;;;;;;0.65;0.47;;;;;;;;;;5015418;28;20209;-74
2021/11/22 14:01:29;;;;;;;1.10;0.40;;;;;;;;;;5015284;28;20360;-73
2021/11/22 14:03:59;;;;;;;1.30;0.40;;;;;;;;;;5009515;28;20713;-73
2021/11/22 14:06:25;;;;;;;2.30;0.60;;;;;;;;;;5011580;28;20651;-73
2021/11/22 14:08:54;;;;;;;1.70;0.50;;;;;;;;;;5011667;28;20199;-73
2021/11/22 14:11:19;;;;;;;1.75;0.80;;;;;;;;;;5014241;28;20686;-73
2021/11/22 14:13:44;;;;;;;2.53;0.70;;;;;;;;;;5009511;28;20226;-73
2021/11/22 14:16:14;;;;;;;2.97;0.82;;;;;;;;;;5016719;28;20851;-79
2021/11/22 14:18:39;;;;;;;3.22;0.60;;;;;;;;;;5008081;28;20287;-77
2021/11/22 14:21:05;;;;;;;0.93;0.50;;;;;;;;;;5012828;28;20601;-77
2021/11/22 14:23:32;;;;;;;2.05;0.50;;;;;;;;;;5010417;28;20260;-78
2021/11/22 14:25:57;;;;;;;3.15;0.68;;;;;;;;;;5010670;28;20780;-76
2021/11/22 14:28:23;;;;;;;2.30;0.50;;;;;;;;;;5006459;28;20192;-79
2021/11/22 14:30:48;;;;;;;1.40;0.70;;;;;;;;;;5004237;28;20189;-79
2021/11/22 14:33:17;;;;;;;1.38;0.70;;;;;;;;;;5011733;28;20211;-77
2021/11/22 14:36:02;;;;;;;2.97;0.80;;;;;;;;;;5006079;28;20261;-76
2021/11/22 14:38:29;;;;;;;2.78;0.82;;;;;;;;;;5011319;28;21502;-78
2021/11/22 14:40:54;;;;;;;3.53;0.63;;;;;;;;;;5012417;28;20189;-80